Time;durP1;ratioP1;P1;durP2;ratioP2;P2;SDS_P1;SDS_P2;PMS_P1;PMS_P2;Temp;Humidity;BMP_temperature;BMP_pressure;BME280_temperature;BME280_humidity;BME280_pressure;Samples;Min_cycle;Max_cycle;Signal;HPM_P1;HPM_P2
2022/01/12 00:00:19;;;;;;;37.78;17.15;;;;;;;1.87;57.01;103381.34;5030366;28;20040;-73
2022/01/12 00:02:45;;;;;;;45.60;17.08;;;;;;;1.97;56.89;103382.53;5044953;28;20040;-73
2022/01/12 00:05:11;;;;;;;50.03;18.00;;;;;;;1.44;58.29;103393.50;5050711;28;20036;-73
2022/01/12 00:07:38;;;;;;;42.65;18.10;;;;;;;1.49;58.16;103376.50;5034631;28;20041;-73
2022/01/12 00:10:04;;;;;;;48.78;19.08;;;;;;;1.44;57.91;103372.88;5051965;28;20047;-72
2022/01/12 00:12:30;;;;;;;54.22;19.80;;;;;;;1.15;59.20;103382.03;5050532;28;20612;-73
2022/01/12 00:14:56;;;;;;;48.42;19.25;;;;;;;1.62;58.29;103385.59;5035480;28;20131;-73
2022/01/12 00:17:23;;;;;;;50.47;19.65;;;;;;;1.40;59.04;103386.47;5041725;28;20055;-73
2022/01/12 00:19:49;;;;;;;46.60;18.48;;;;;;;1.57;57.95;103387.09;5051006;28;20487;-73
2022/01/12 00:22:14;;;;;;;49.58;20.70;;;;;;;1.54;58.33;103388.69;5016664;28;20052;-73
2022/01/12 00:33:09;;;;;;;61.95;19.55;;;;;;;1.43;58.91;103384.00;5033871;28;20052;-71
2022/01/12 00:35:39;;;;;;;52.08;19.50;;;;;;;1.43;58.58;103378.84;5030024;28;20037;-72
2022/01/12 00:38:04;;;;;;;50.88;17.67;;;;;;;1.97;57.44;103377.38;5024550;28;20123;-72
2022/01/12 00:40:31;;;;;;;50.15;19.25;;;;;;;1.75;58.10;103386.91;5037713;28;20552;-72
2022/01/12 00:42:59;;;;;;;49.55;20.50;;;;;;;1.97;57.11;103377.38;5051408;28;20064;-72
2022/01/12 00:45:25;;;;;;;51.30;17.90;;;;;;;1.86;57.76;103375.31;5026575;28;20585;-72
2022/01/12 00:47:50;;;;;;;52.95;20.95;;;;;;;2.15;56.93;103370.28;5029033;28;20068;-72
2022/01/12 00:50:18;;;;;;;57.97;20.63;;;;;;;2.14;56.70;103377.16;5015767;28;20038;-72
2022/01/12 00:52:44;;;;;;;61.03;21.85;;;;;;;1.91;57.70;103372.91;5032398;28;20051;-72
2022/01/12 00:55:10;;;;;;;66.88;22.52;;;;;;;1.71;57.76;103375.59;5035523;28;20028;-72
2022/01/12 00:57:35;;;;;;;57.70;19.50;;;;;;;1.72;58.19;103379.94;5021145;28;20041;-72
2022/01/12 01:00:01;;;;;;;61.65;20.52;;;;;;;1.68;58.29;103383.22;5036628;28;20033;-72
2022/01/12 01:02:29;;;;;;;51.15;19.58;;;;;;;1.92;57.73;103374.63;5051955;28;20132;-74
2022/01/12 01:04:55;;;;;;;56.08;21.88;;;;;;;2.00;57.31;103368.06;5040970;28;20041;-72
2022/01/12 01:07:21;;;;;;;51.97;19.10;;;;;;;1.94;57.43;103376.44;5034516;28;20041;-72
2022/01/12 01:09:57;;;;;;;55.65;20.52;;;;;;;1.91;57.45;103378.94;5037303;28;20032;-72
2022/01/12 01:12:23;;;;;;;56.72;20.63;;;;;;;2.00;57.55;103373.22;5033646;28;20533;-72
2022/01/12 01:15:03;;;;;;;48.90;18.80;;;;;;;2.24;57.04;103378.38;5049427;28;20631;-73
2022/01/12 01:25:55;;;;;;;57.78;20.45;;;;;;;2.09;57.52;103403.63;5034182;28;20237;-72
2022/01/12 01:28:22;;;;;;;71.57;19.92;;;;;;;2.14;57.33;103413.28;5017726;28;20109;-73
2022/01/12 01:30:50;;;;;;;60.53;20.95;;;;;;;2.33;56.74;103424.25;5042578;28;20548;-74
2022/01/12 01:33:26;;;;;;;50.17;20.27;;;;;;;2.40;56.53;103440.81;5035078;28;20032;-74
2022/01/12 01:35:57;;;;;;;61.70;19.58;;;;;;;2.09;57.10;103440.63;5025513;28;20486;-74
2022/01/12 01:38:25;;;;;;;60.50;21.27;;;;;;;2.26;57.13;103464.44;5025270;28;20149;-74
2022/01/12 01:40:51;;;;;;;52.28;19.55;;;;;;;2.05;57.97;103461.09;5029372;28;20029;-73
2022/01/12 01:43:24;;;;;;;42.90;18.52;;;;;;;2.21;57.38;103459.94;5036343;28;20135;-73
2022/01/12 01:54:07;;;;;;;58.80;19.77;;;;;;;2.52;56.57;103456.75;5050771;28;20029;-75
2022/01/12 01:56:33;;;;;;;69.70;22.67;;;;;;;2.61;56.36;103451.03;5030516;28;20086;-74
2022/01/12 01:59:01;;;;;;;58.50;21.05;;;;;;;2.46;56.40;103451.38;5034163;28;20037;-74
2022/01/12 02:01:28;;;;;;;67.28;22.77;;;;;;;2.21;57.38;103455.66;5030880;28;20111;-74
2022/01/12 02:04:02;;;;;;;57.17;18.83;;;;;;;2.17;57.85;103458.94;5035044;28;20094;-74
2022/01/12 02:06:29;;;;;;;66.53;20.70;;;;;;;2.21;57.46;103458.25;5026493;28;21568;-74
2022/01/12 02:08:55;;;;;;;63.50;20.92;;;;;;;1.78;58.46;103464.41;5015958;28;20107;-74
2022/01/12 02:11:48;;;;;;;66.45;20.92;;;;;;;2.14;57.57;103464.88;5054410;28;20070;-75
2022/01/12 02:14:15;;;;;;;62.08;21.02;;;;;;;2.18;57.56;103473.63;5036445;28;20056;-75
2022/01/12 02:17:21;;;;;;;56.70;21.23;;;;;;;2.24;57.83;103476.44;5014508;28;20029;-74
2022/01/12 02:36:26;;;;;;;54.58;19.70;;;;;;;2.49;57.08;103510.88;5047985;28;20042;-73
2022/01/12 02:41:38;;;;;;;62.38;21.08;;;;;;;2.38;57.69;103507.91;5047673;28;20040;-73
2022/01/12 02:55:07;;;;;;;55.85;19.33;;;;;;;2.77;56.81;103513.59;5051798;28;20036;-73
2022/01/12 02:57:33;;;;;;;57.42;20.13;;;;;;;2.59;57.22;103505.19;5033682;28;20100;-73
2022/01/12 03:00:08;;;;;;;57.70;20.58;;;;;;;2.84;56.83;103487.97;5034445;28;20089;-73
2022/01/12 03:02:40;;;;;;;43.78;16.63;;;;;;;2.81;56.54;103483.59;5051871;28;20039;-72
2022/01/12 03:07:39;;;;;;;56.15;19.02;;;;;;;2.98;56.21;103468.69;5052944;28;20571;-73
2022/01/12 03:10:10;;;;;;;58.85;21.35;;;;;;;2.43;57.73;103451.28;5034779;28;20029;-73
2022/01/12 03:12:40;;;;;;;49.95;18.58;;;;;;;2.58;57.39;103446.66;5048470;28;20041;-72
2022/01/12 03:15:09;;;;;;;54.13;17.27;;;;;;;2.88;56.39;103451.09;5038470;28;20083;-73
2022/01/12 03:17:37;;;;;;;62.03;19.85;;;;;;;2.44;57.75;103453.91;5037835;28;20040;-72
2022/01/12 03:20:08;;;;;;;56.05;20.20;;;;;;;2.53;57.70;103454.25;5022857;28;20028;-72
2022/01/12 03:22:34;;;;;;;62.17;22.23;;;;;;;2.84;56.64;103467.31;5038222;28;20538;-72
2022/01/12 03:25:00;;;;;;;67.53;19.92;;;;;;;2.68;56.77;103469.38;5043420;28;20373;-72
2022/01/12 03:27:29;;;;;;;89.38;20.55;;;;;;;2.12;58.39;103466.53;5040532;28;20123;-72
2022/01/12 03:29:56;;;;;;;68.28;22.02;;;;;;;2.35;57.37;103459.63;5019707;28;20034;-72
2022/01/12 03:32:36;;;;;;;56.85;20.55;;;;;;;2.65;56.47;103464.13;5047144;28;20044;-74
2022/01/12 03:35:22;;;;;;;88.22;23.00;;;;;;;2.05;58.37;103467.13;5038116;28;20461;-74
2022/01/12 03:38:23;;;;;;;67.63;19.83;;;;;;;2.36;57.30;103481.16;5036458;28;20041;-74
2022/01/12 03:40:45;;;;;;;77.45;20.52;;;;;;;1.91;58.93;103487.25;5033137;28;20666;-74
2022/01/12 03:43:11;;;;;;;73.68;21.38;;;;;;;1.80;59.32;103483.38;5037828;28;20036;-72
2022/01/12 03:45:37;;;;;;;64.72;20.73;;;;;;;2.33;57.48;103487.09;5009394;28;20033;-74
2022/01/12 03:48:02;;;;;;;76.43;21.05;;;;;;;2.38;57.21;103476.94;5029858;28;20048;-74
2022/01/12 03:50:29;;;;;;;63.70;19.88;;;;;;;2.04;58.57;103488.59;5014476;28;20032;-74
2022/01/12 03:52:54;;;;;;;71.78;20.85;;;;;;;2.17;58.05;103481.31;5037698;28;20581;-73
2022/01/12 03:55:20;;;;;;;94.45;20.77;;;;;;;2.42;57.51;103488.22;5025160;28;20418;-74
2022/01/12 03:57:46;;;;;;;60.55;18.17;;;;;;;1.98;59.02;103492.66;5034806;28;20259;-74
2022/01/12 04:00:14;;;;;;;131.55;21.70;;;;;;;2.08;58.83;103494.72;5029645;28;20571;-74
2022/01/12 04:02:40;;;;;;;136.57;20.48;;;;;;;2.02;58.82;103491.91;5050349;28;20041;-75
2022/01/12 04:05:25;;;;;;;89.28;18.88;;;;;;;2.31;58.32;103486.16;5023941;28;20028;-73
2022/01/12 04:10:37;;;;;;;107.60;18.73;;;;;;;2.45;57.21;103481.47;5039636;28;20601;-72
2022/01/12 04:13:03;;;;;;;75.28;17.70;;;;;;;2.28;58.11;103482.56;5036434;28;20040;-73
2022/01/12 04:15:29;;;;;;;57.30;16.65;;;;;;;2.49;57.25;103483.34;5016083;28;20036;-72
2022/01/12 04:17:54;;;;;;;54.05;15.38;;;;;;;2.34;57.63;103481.09;5036650;28;20283;-73
2022/01/12 04:20:20;;;;;;;120.47;18.20;;;;;;;2.24;58.13;103486.75;5041429;28;20044;-72
2022/01/12 04:25:32;;;;;;;50.80;14.52;;;;;;;2.59;57.18;103494.88;5030717;28;20067;-72
2022/01/12 04:27:58;;;;;;;41.55;15.52;;;;;;;2.77;56.66;103492.94;5039468;28;20175;-72
2022/01/12 04:30:23;;;;;;;69.88;16.83;;;;;;;2.45;56.93;103496.09;5042348;28;20110;-73
2022/01/12 04:32:49;;;;;;;47.58;16.52;;;;;;;2.62;57.01;103500.13;5034637;28;20075;-73
2022/01/12 04:35:16;;;;;;;61.20;16.38;;;;;;;2.47;57.38;103509.94;5012016;28;20079;-72
2022/01/12 04:37:44;;;;;;;56.15;15.63;;;;;;;2.54;56.71;103502.47;5012428;28;20064;-73
2022/01/12 04:40:12;;;;;;;45.15;15.50;;;;;;;2.45;57.12;103502.13;5048826;28;20207;-73
2022/01/12 04:42:38;;;;;;;49.08;15.60;;;;;;;2.42;57.11;103508.88;5023678;28;20411;-74
2022/01/12 04:45:17;;;;;;;42.53;15.13;;;;;;;2.61;56.89;103498.41;5028245;28;20036;-72
2022/01/12 04:50:35;;;;;;;51.97;14.30;;;;;;;2.73;55.84;103508.28;4997260;28;20055;-72
2022/01/12 04:53:04;;;;;;;51.72;14.20;;;;;;;2.82;56.20;103512.88;5021039;28;20041;-73
2022/01/12 04:55:32;;;;;;;36.85;14.45;;;;;;;2.58;56.30;103518.97;5013920;28;20061;-73
2022/01/12 04:57:58;;;;;;;36.70;14.05;;;;;;;2.58;56.26;103521.53;5050740;28;20283;-73
2022/01/12 05:00:27;;;;;;;32.08;11.95;;;;;;;2.44;56.73;103525.31;5026252;28;20036;-70
2022/01/12 05:13:40;;;;;;;44.30;12.50;;;;;;;2.48;56.19;103522.00;5052727;28;20036;-71
2022/01/12 05:16:10;;;;;;;95.05;13.65;;;;;;;2.10;57.07;103518.91;5026637;28;20035;-71
2022/01/12 05:18:36;;;;;;;69.22;12.30;;;;;;;2.00;57.15;103532.25;5020482;28;20124;-70
2022/01/12 05:21:04;;;;;;;92.85;11.85;;;;;;;1.96;57.21;103527.81;5028221;28;20624;-73
2022/01/12 05:23:31;;;;;;;110.20;14.20;;;;;;;1.94;57.13;103528.63;5022447;28;20047;-72
2022/01/12 05:25:58;;;;;;;22.70;9.85;;;;;;;2.21;56.32;103522.75;5023439;28;20142;-73
2022/01/12 05:28:25;;;;;;;60.90;11.48;;;;;;;2.13;56.49;103529.31;5037371;28;22358;-72
2022/01/12 05:30:52;;;;;;;33.63;11.23;;;;;;;1.97;57.04;103527.84;5035126;28;21140;-73
2022/01/12 05:33:19;;;;;;;35.47;10.80;;;;;;;2.27;56.12;103533.31;5043223;28;20037;-73
2022/01/12 05:35:45;;;;;;;61.67;11.50;;;;;;;1.98;56.29;103534.78;5049541;28;20679;-75
2022/01/12 05:38:15;;;;;;;121.38;12.95;;;;;;;1.25;58.03;103537.84;5051888;28;20527;-74
2022/01/12 05:40:42;;;;;;;87.88;10.45;;;;;;;1.40;57.40;103543.66;5043850;28;20127;-74
2022/01/12 05:43:11;;;;;;;38.75;8.88;;;;;;;1.35;57.82;103551.97;5032869;28;20044;-74
2022/01/12 05:45:44;;;;;;;134.85;12.82;;;;;;;1.10;58.10;103556.09;5030864;28;20025;-74
2022/01/12 05:50:40;;;;;;;47.92;8.82;;;;;;;1.30;57.71;103557.84;5035844;28;20453;-72
2022/01/12 05:53:16;;;;;;;41.88;8.63;;;;;;;1.43;56.94;103559.25;5032226;28;20476;-72
2022/01/12 05:55:44;;;;;;;64.32;9.13;;;;;;;1.35;57.34;103575.16;5007638;28;20029;-72
2022/01/12 05:58:11;;;;;;;66.47;9.70;;;;;;;1.20;57.26;103578.00;5026190;28;20137;-73
2022/01/12 06:00:37;;;;;;;34.83;7.97;;;;;;;1.47;56.71;103578.31;5031865;28;20434;-73
2022/01/12 06:03:05;;;;;;;17.88;7.50;;;;;;;1.55;56.66;103573.44;5034953;28;20151;-72
2022/01/12 06:05:31;;;;;;;63.47;9.13;;;;;;;1.47;56.26;103576.59;5048517;28;20100;-73
2022/01/12 06:07:58;;;;;;;18.02;7.35;;;;;;;1.66;56.35;103585.09;5008414;28;20040;-72
2022/01/12 06:10:24;;;;;;;41.33;9.00;;;;;;;1.37;57.23;103584.72;5035543;28;20032;-72
2022/01/12 06:12:51;;;;;;;76.03;9.25;;;;;;;1.27;56.76;103582.59;5033641;28;20048;-72
2022/01/12 06:15:17;;;;;;;60.30;7.55;;;;;;;1.43;56.48;103590.19;5020079;28;20123;-72
2022/01/12 06:17:44;;;;;;;53.53;8.52;;;;;;;1.13;57.11;103591.41;5015546;28;20392;-72
2022/01/12 06:20:09;;;;;;;24.13;6.97;;;;;;;1.21;56.66;103592.63;5021904;28;20040;-73
2022/01/12 06:23:07;;;;;;;26.92;6.55;;;;;;;1.27;56.19;103583.47;4977077;28;20053;-74
2022/01/12 06:25:35;;;;;;;90.70;8.88;;;;;;;1.04;56.53;103592.81;5029394;28;20036;-73
2022/01/12 06:28:24;;;;;;;29.40;6.97;;;;;;;1.23;56.56;103591.00;5028366;28;20267;-74
2022/01/12 06:33:43;;;;;;;103.20;8.85;;;;;;;0.93;57.03;103603.47;5015037;28;20040;-75
2022/01/12 06:36:11;;;;;;;29.02;6.05;;;;;;;1.22;56.35;103609.88;5037709;28;20043;-74
2022/01/12 06:38:37;;;;;;;13.32;6.47;;;;;;;1.23;56.28;103606.47;5048736;28;20082;-73
2022/01/12 06:41:04;;;;;;;33.95;7.22;;;;;;;1.04;56.67;103608.25;5044763;28;20567;-72
2022/01/12 06:43:32;;;;;;;58.05;7.22;;;;;;;1.15;56.26;103612.97;5040832;28;20072;-73
2022/01/12 06:45:58;;;;;;;30.70;4.70;;;;;;;1.17;56.39;103608.78;5038024;28;20028;-73
2022/01/12 06:48:25;;;;;;;46.97;8.32;;;;;;;0.98;56.29;103610.56;5022892;28;20052;-72
2022/01/12 06:50:53;;;;;;;61.67;6.88;;;;;;;0.73;57.16;103607.72;5016675;28;20513;-73
2022/01/12 06:53:18;;;;;;;42.65;5.50;;;;;;;1.03;56.55;103609.06;5027744;28;20044;-73
2022/01/12 06:55:46;;;;;;;23.73;6.32;;;;;;;0.86;56.94;103610.91;5035966;28;20025;-73
2022/01/12 06:58:12;;;;;;;23.30;6.38;;;;;;;1.12;56.43;103618.88;5030846;28;20398;-72
2022/01/12 07:00:38;;;;;;;23.10;6.30;;;;;;;1.18;56.23;103623.44;5034782;28;21027;-72
2022/01/12 07:03:05;;;;;;;50.20;7.38;;;;;;;1.08;56.00;103623.03;5026610;28;20115;-73
2022/01/12 07:05:41;;;;;;;86.60;7.93;;;;;;;0.93;56.60;103617.22;5031361;28;20517;-71
2022/01/12 07:08:08;;;;;;;42.47;7.50;;;;;;;0.86;56.57;103620.34;5040933;28;20635;-69
2022/01/12 07:10:38;;;;;;;;;;;;;;;1.07;56.06;103618.69;5023356;28;20033;-73
2022/01/12 07:13:17;;;;;;;62.75;7.10;;;;;;;0.89;56.15;103621.31;5017182;28;20520;-73
2022/01/12 07:15:43;;;;;;;33.65;6.60;;;;;;;1.08;56.09;103632.44;5030072;28;20139;-73
2022/01/12 07:18:10;;;;;;;87.57;7.82;;;;;;;1.01;55.80;103625.25;5040143;28;20447;-73
2022/01/12 07:20:36;;;;;;;47.45;6.82;;;;;;;0.86;56.41;103630.63;5037450;28;20075;-73
2022/01/12 07:23:02;;;;;;;63.20;7.30;;;;;;;0.82;56.88;103632.19;5029053;28;20131;-73
2022/01/12 07:25:30;;;;;;;69.90;7.93;;;;;;;0.60;57.17;103648.34;5038397;28;20389;-73
2022/01/12 07:27:56;;;;;;;57.58;7.07;;;;;;;0.71;57.08;103660.84;5042035;28;20115;-73
2022/01/12 07:30:22;;;;;;;12.25;6.55;;;;;;;0.54;57.49;103670.34;5044049;28;20042;-73
2022/01/12 07:32:50;;;;;;;16.67;6.10;;;;;;;0.75;57.04;103675.56;5036630;28;20095;-73
2022/01/12 07:35:18;;;;;;;39.88;6.43;;;;;;;0.89;56.67;103677.09;5050302;28;20449;-73
2022/01/12 07:37:44;;;;;;;15.52;6.00;;;;;;;0.85;56.80;103677.78;5039646;28;20033;-73
2022/01/12 07:40:10;;;;;;;36.10;5.40;;;;;;;0.60;57.42;103674.06;5034585;28;20044;-73
2022/01/12 07:42:36;;;;;;;16.35;6.68;;;;;;;0.65;57.37;103672.59;5014333;28;20063;-74
2022/01/12 07:45:11;;;;;;;15.65;5.53;;;;;;;0.78;57.08;103673.16;5042170;28;20036;-73
2022/01/12 07:47:37;;;;;;;16.85;5.10;;;;;;;0.76;56.80;103677.34;5017143;28;20087;-72
2022/01/12 07:50:04;;;;;;;66.35;7.45;;;;;;;0.68;56.84;103683.03;5022799;28;20575;-73
2022/01/12 07:52:30;;;;;;;51.22;7.05;;;;;;;0.57;56.98;103685.91;5044668;28;20086;-74
2022/01/12 07:54:59;;;;;;;46.13;6.25;;;;;;;0.40;57.29;103686.00;5029846;28;20044;-73
2022/01/12 07:57:25;;;;;;;41.28;6.63;;;;;;;0.49;57.17;103688.13;5047064;28;20427;-74
2022/01/12 07:59:51;;;;;;;77.38;7.68;;;;;;;0.45;57.31;103686.22;5032669;28;20067;-74
2022/01/12 08:02:19;;;;;;;36.70;5.22;;;;;;;0.46;57.11;103680.28;5043366;28;20051;-73
2022/01/12 08:04:45;;;;;;;37.20;5.53;;;;;;;0.42;57.58;103683.50;5043626;28;20586;-73
2022/01/12 08:07:11;;;;;;;22.17;6.03;;;;;;;0.45;57.20;103684.53;5016888;28;20094;-73
2022/01/12 08:09:38;;;;;;;18.75;5.43;;;;;;;0.43;57.59;103690.41;5048247;28;20029;-75
2022/01/12 08:12:04;;;;;;;35.08;6.80;;;;;;;0.14;58.52;103684.75;5036829;28;20824;-74
2022/01/12 08:14:32;;;;;;;59.63;7.22;;;;;;;0.43;57.51;103685.25;5020047;28;20043;-74
2022/01/12 08:16:57;;;;;;;28.15;5.47;;;;;;;0.54;57.37;103693.50;5043488;28;20391;-74
2022/01/12 08:19:24;;;;;;;26.70;6.28;;;;;;;0.38;57.13;103692.75;5033501;28;20024;-74
2022/01/12 08:21:50;;;;;;;20.98;5.20;;;;;;;0.45;57.38;103692.25;5035174;28;20119;-74
2022/01/12 08:24:16;;;;;;;22.77;6.10;;;;;;;0.71;57.38;103686.56;5036376;28;20044;-74
2022/01/12 08:26:44;;;;;;;51.85;6.68;;;;;;;0.77;57.41;103691.97;5046652;28;20098;-76
2022/01/12 08:29:13;;;;;;;39.42;6.00;;;;;;;0.68;57.09;103693.34;5035796;28;20189;-75
2022/01/12 08:31:40;;;;;;;77.63;7.28;;;;;;;0.26;57.79;103699.91;5053771;28;20327;-74
2022/01/12 08:34:10;;;;;;;34.80;5.90;;;;;;;0.59;57.67;103700.63;5044477;28;20045;-74
2022/01/12 08:36:40;;;;;;;34.60;5.50;;;;;;;0.54;57.48;103702.09;5050892;28;20306;-74
2022/01/12 08:39:08;;;;;;;11.80;5.05;;;;;;;0.85;57.17;103700.94;5022566;28;20126;-74
2022/01/12 08:41:37;;;;;;;30.88;5.78;;;;;;;0.80;56.99;103702.44;5035435;28;20082;-74
2022/01/12 08:44:05;;;;;;;33.70;6.47;;;;;;;0.52;58.38;103703.69;5035336;28;20048;-75
2022/01/12 08:46:31;;;;;;;42.50;6.75;;;;;;;0.74;57.73;103707.28;5054374;28;20107;-74
2022/01/12 08:48:57;;;;;;;15.88;4.88;;;;;;;0.82;57.87;103716.28;5012230;28;20581;-73
2022/01/12 08:51:22;;;;;;;27.20;6.05;;;;;;;0.99;57.30;103711.88;5036642;28;20037;-74
2022/01/12 08:53:48;;;;;;;58.88;5.72;;;;;;;1.21;56.78;103716.31;5037994;28;20040;-74
2022/01/12 08:56:14;;;;;;;39.35;6.53;;;;;;;1.13;56.79;103733.09;5025415;28;20060;-74
2022/01/12 08:58:40;;;;;;;23.05;7.10;;;;;;;1.50;56.40;103735.66;5046840;28;20041;-75
2022/01/12 09:01:06;;;;;;;13.20;5.80;;;;;;;1.36;56.83;103744.47;5034292;28;20066;-74
2022/01/12 09:03:35;;;;;;;26.08;5.78;;;;;;;1.31;56.99;103742.56;5051605;28;20048;-74
2022/01/12 09:06:05;;;;;;;40.80;6.22;;;;;;;1.48;56.18;103738.19;5052225;28;20028;-74
2022/01/12 09:08:31;;;;;;;15.40;6.53;;;;;;;1.07;57.58;103742.31;5046155;28;20045;-74
2022/01/12 09:10:56;;;;;;;40.30;5.60;;;;;;;1.28;56.94;103752.75;5037992;28;20476;-74
2022/01/12 09:13:27;;;;;;;19.60;4.72;;;;;;;1.49;57.08;103744.22;5049493;28;20033;-74
2022/01/12 09:15:53;;;;;;;30.05;8.82;;;;;;;1.56;56.46;103742.78;5019698;28;20037;-75
2022/01/12 09:18:18;;;;;;;38.55;7.70;;;;;;;1.67;56.27;103744.16;5035834;28;20040;-77
2022/01/12 09:20:45;;;;;;;47.92;8.07;;;;;;;1.31;57.54;103754.56;5018369;28;20033;-74
2022/01/12 09:23:10;;;;;;;20.40;5.35;;;;;;;1.81;56.87;103755.03;5005348;28;20334;-74
2022/01/12 09:25:39;;;;;;;14.55;4.70;;;;;;;1.80;56.88;103758.47;5019174;28;20032;-75
2022/01/12 09:28:06;;;;;;;31.85;5.72;;;;;;;1.90;56.55;103760.59;5029305;28;20546;-75
2022/01/12 09:30:31;;;;;;;11.35;5.13;;;;;;;2.24;56.02;103760.31;5021154;28;20247;-74
2022/01/12 09:32:59;;;;;;;54.30;5.43;;;;;;;1.78;56.28;103758.38;5048081;28;20063;-76
2022/01/12 09:35:25;;;;;;;14.73;3.80;;;;;;;2.05;56.00;103752.63;5040851;28;20139;-74
2022/01/12 09:37:51;;;;;;;30.35;4.78;;;;;;;2.01;55.98;103754.19;5047735;28;20041;-74
2022/01/12 09:40:17;;;;;;;34.20;4.93;;;;;;;2.06;55.90;103765.56;5049732;28;20063;-76
2022/01/12 09:42:44;;;;;;;45.35;4.53;;;;;;;2.33;55.33;103768.44;5034322;28;20041;-74
2022/01/12 09:45:15;;;;;;;30.55;4.22;;;;;;;2.07;56.14;103763.91;5038083;28;20052;-74
2022/01/12 09:47:42;;;;;;;19.48;3.90;;;;;;;2.20;56.44;103765.25;5018726;28;20052;-75
2022/01/12 09:50:09;;;;;;;12.77;4.32;;;;;;;2.54;55.65;103764.94;5026672;28;20024;-74
2022/01/12 09:52:34;;;;;;;10.30;3.95;;;;;;;2.06;56.69;103769.84;5041429;28;20036;-74
2022/01/12 09:55:00;;;;;;;52.50;5.25;;;;;;;2.30;55.18;103775.16;5048513;28;20028;-75
2022/01/12 09:57:26;;;;;;;12.52;4.60;;;;;;;2.21;56.38;103775.66;5035459;28;20681;-73
2022/01/12 09:59:51;;;;;;;14.73;4.68;;;;;;;2.44;55.68;103783.47;5048862;28;20896;-75
2022/01/12 10:02:19;;;;;;;33.50;4.93;;;;;;;2.62;55.89;103791.06;5047807;28;20040;-74
2022/01/12 10:04:45;;;;;;;28.88;3.88;;;;;;;2.29;56.11;103788.91;5048546;28;20116;-75
2022/01/12 10:07:13;;;;;;;24.58;4.35;;;;;;;2.62;55.70;103789.34;5018995;28;20067;-74
2022/01/12 10:09:41;;;;;;;10.80;4.10;;;;;;;2.59;55.72;103791.81;5032960;28;20033;-74
2022/01/12 10:12:18;;;;;;;12.77;3.55;;;;;;;2.66;55.79;103785.22;5034333;28;20060;-74
2022/01/12 10:14:55;;;;;;;16.13;3.70;;;;;;;2.55;55.98;103793.44;5033356;28;20067;-73
2022/01/12 10:17:37;;;;;;;26.25;4.72;;;;;;;2.65;55.86;103798.97;5050308;28;20052;-73
2022/01/12 10:20:19;;;;;;;16.25;2.72;;;;;;;2.63;55.43;103796.31;5043615;28;20036;-74
2022/01/12 10:22:56;;;;;;;45.05;4.05;;;;;;;2.01;57.38;103781.69;5048975;28;20275;-73
2022/01/12 10:25:28;;;;;;;32.25;3.90;;;;;;;2.27;56.74;103786.25;5050280;28;20032;-74
2022/01/12 10:27:55;;;;;;;27.45;4.20;;;;;;;1.80;58.37;103781.66;5013111;28;20035;-74
2022/01/12 10:30:26;;;;;;;25.35;3.67;;;;;;;2.55;57.06;103777.03;5050446;28;20036;-73
2022/01/12 10:33:02;;;;;;;22.17;3.83;;;;;;;2.13;57.44;103771.88;5028993;28;20044;-74
2022/01/12 10:35:29;;;;;;;9.00;3.28;;;;;;;2.54;57.01;103759.78;5050798;28;20403;-73
2022/01/12 10:38:07;;;;;;;38.42;3.20;;;;;;;2.34;57.35;103762.44;5047997;28;20071;-74
2022/01/12 10:40:53;;;;;;;34.88;4.00;;;;;;;2.61;57.15;103761.78;5037254;28;20110;-74
2022/01/12 10:43:37;;;;;;;24.80;3.63;;;;;;;3.07;55.75;103758.41;5050545;28;20450;-75
2022/01/12 10:46:08;;;;;;;25.17;4.18;;;;;;;2.79;56.54;103768.50;5052255;28;20123;-73
2022/01/12 10:48:46;;;;;;;22.80;3.22;;;;;;;2.59;56.67;103772.88;5045196;28;20618;-74
2022/01/12 10:51:20;;;;;;;21.23;3.17;;;;;;;2.63;57.31;103769.59;5051191;28;20039;-72
2022/01/12 10:53:47;;;;;;;22.38;3.58;;;;;;;2.96;56.38;103767.44;5048302;28;20147;-73
2022/01/12 10:56:15;;;;;;;15.77;3.70;;;;;;;2.55;57.51;103766.69;5029189;28;20090;-71
2022/01/12 10:58:43;;;;;;;31.25;3.95;;;;;;;2.53;57.23;103774.41;5030049;28;20022;-72
2022/01/12 11:01:17;;;;;;;38.25;4.20;;;;;;;2.78;56.76;103775.38;5047044;28;20033;-73
2022/01/12 11:03:50;;;;;;;39.97;3.97;;;;;;;2.93;56.40;103775.06;5039567;28;20041;-74
2022/01/12 11:06:15;;;;;;;21.88;3.85;;;;;;;2.86;56.94;103771.38;5049655;28;20117;-74
2022/01/12 11:08:43;;;;;;;10.68;3.20;;;;;;;3.05;56.58;103772.97;5030875;28;20082;-74
2022/01/12 11:11:09;;;;;;;8.45;4.47;;;;;;;3.31;56.50;103773.06;5031631;28;20040;-74
2022/01/12 11:13:37;;;;;;;10.85;3.53;;;;;;;3.26;56.52;103779.75;5041572;28;20045;-73
2022/01/12 11:16:04;;;;;;;21.83;4.07;;;;;;;2.96;56.66;103768.31;5028661;28;20082;-73
2022/01/12 11:18:37;;;;;;;20.25;3.80;;;;;;;3.26;57.06;103764.25;5033437;28;20588;-74
2022/01/12 11:21:10;;;;;;;9.63;3.58;;;;;;;3.48;55.61;103756.47;5048989;28;20317;-74
2022/01/12 11:23:42;;;;;;;17.90;3.72;;;;;;;3.39;55.44;103751.84;5038147;28;20146;-74
2022/01/12 11:26:19;;;;;;;34.03;3.78;;;;;;;3.17;56.20;103742.41;5043903;28;20510;-74
2022/01/12 11:28:51;;;;;;;12.32;4.32;;;;;;;3.22;57.18;103741.69;5026533;28;20420;-73
2022/01/12 11:31:29;;;;;;;9.60;3.33;;;;;;;3.59;56.46;103734.47;5044885;28;20137;-74
2022/01/12 11:33:54;;;;;;;26.13;3.78;;;;;;;3.75;55.07;103741.03;5029717;28;20196;-74
2022/01/12 11:36:27;;;;;;;15.00;3.72;;;;;;;3.36;56.54;103736.25;5048625;28;20037;-74
2022/01/12 11:39:04;;;;;;;15.75;4.10;;;;;;;3.62;56.05;103735.41;5033807;28;20439;-74
2022/01/12 11:41:33;;;;;;;9.52;3.55;;;;;;;3.75;56.06;103735.88;5034167;28;20431;-74
2022/01/12 11:44:01;;;;;;;11.43;3.20;;;;;;;3.25;56.51;103731.44;5042229;28;20053;-72
2022/01/12 11:46:49;;;;;;;37.47;4.40;;;;;;;3.19;56.92;103743.34;5030615;28;20519;-73
2022/01/12 11:49:34;;;;;;;22.35;3.60;;;;;;;2.65;57.32;103748.19;5050495;28;20053;-73
2022/01/12 11:52:13;;;;;;;7.63;3.05;;;;;;;3.38;56.60;103749.19;5033264;28;20395;-73
2022/01/12 11:54:39;;;;;;;13.52;3.15;;;;;;;3.31;56.42;103749.81;5038454;28;20028;-74
2022/01/12 11:57:11;;;;;;;25.23;3.60;;;;;;;2.64;58.22;103755.84;5043104;28;20403;-74
2022/01/12 11:59:53;;;;;;;;;;;;;;;3.45;56.50;103758.97;5033403;28;20398;-74
2022/01/12 12:02:33;;;;;;;13.90;2.67;;;;;;;3.12;57.17;103766.31;5030923;28;19983;-74
2022/01/12 12:05:01;;;;;;;9.38;3.83;;;;;;;3.45;56.69;103769.31;5027794;28;20028;-74
2022/01/12 12:07:27;;;;;;;14.38;3.35;;;;;;;3.18;57.33;103777.78;5015116;28;20045;-74
2022/01/12 12:09:59;;;;;;;24.25;3.65;;;;;;;3.19;56.92;103789.00;5047421;28;20037;-73
2022/01/12 12:12:38;;;;;;;4.38;2.35;;;;;;;3.06;57.88;103789.34;5036677;28;20707;-73
2022/01/12 12:15:06;;;;;;;12.10;3.38;;;;;;;3.21;57.30;103791.63;5034350;28;20505;-73
2022/01/12 12:17:34;;;;;;;7.30;3.45;;;;;;;3.72;56.37;103789.22;5049611;28;20044;-73
2022/01/12 12:20:02;;;;;;;8.18;3.50;;;;;;;3.63;56.53;103782.03;5034495;28;20024;-73
2022/01/12 12:22:30;;;;;;;8.57;4.38;;;;;;;3.87;55.65;103773.34;5045033;28;20054;-74
2022/01/12 12:25:07;;;;;;;14.57;4.03;;;;;;;3.64;56.31;103777.72;5051806;28;20454;-74
2022/01/12 12:27:37;;;;;;;6.93;4.40;;;;;;;2.93;58.33;103781.09;5032254;28;20037;-74
2022/01/12 12:30:05;;;;;;;13.13;4.35;;;;;;;3.44;57.49;103790.81;5033683;28;20040;-74
2022/01/12 12:32:37;;;;;;;9.60;4.05;;;;;;;3.71;56.83;103782.28;5041560;28;20036;-75
2022/01/12 12:35:10;;;;;;;12.50;4.83;;;;;;;3.79;56.33;103767.91;5028339;28;20522;-74
2022/01/12 12:37:42;;;;;;;11.73;4.32;;;;;;;3.91;56.24;103763.16;5037483;28;20041;-75
2022/01/12 12:40:59;;;;;;;7.55;4.82;;;;;;;3.57;56.55;103756.81;5024501;28;20035;-74
2022/01/12 12:43:28;;;;;;;13.43;4.72;;;;;;;3.43;57.23;103758.03;4996442;28;20036;-73
2022/01/12 12:46:00;;;;;;;12.65;5.18;;;;;;;3.59;56.73;103760.31;5050323;28;20037;-74
2022/01/12 12:48:29;;;;;;;17.83;5.97;;;;;;;3.33;57.44;103763.69;5018051;28;20391;-74
2022/01/12 12:51:00;;;;;;;15.60;5.07;;;;;;;3.75;56.47;103750.53;5026555;28;20033;-74
2022/01/12 12:53:28;;;;;;;11.45;4.47;;;;;;;3.90;56.13;103745.88;5008131;28;20037;-74